sensor_id;sensor_type;location;lat;lon;timestamp;pressure;altitude;pressure_sealevel;temperature;humidity
74913;BME280;63878;55.624;37.304;2023-04-03T00:02:46;98697.94;;;4.25;67.96
74913;BME280;63878;55.624;37.304;2023-04-03T00:12:46;98696.28;;;4.11;68.40
74913;BME280;63878;55.624;37.304;2023-04-03T00:22:47;98684.06;;;3.99;68.80
74913;BME280;63878;55.624;37.304;2023-04-03T00:32:49;98687.94;;;4.06;67.41
74913;BME280;63878;55.624;37.304;2023-04-03T00:42:54;98681.75;;;3.94;67.68
74913;BME280;63878;55.624;37.304;2023-04-03T00:52:56;98692.84;;;3.85;68.78
74913;BME280;63878;55.624;37.304;2023-04-03T01:02:57;98690.13;;;3.87;67.15
74913;BME280;63878;55.624;37.304;2023-04-03T01:12:59;98678.75;;;3.88;66.56
74913;BME280;63878;55.624;37.304;2023-04-03T01:33:10;98685.97;;;3.84;66.00
74913;BME280;63878;55.624;37.304;2023-04-03T01:43:10;98690.44;;;3.82;65.63
74913;BME280;63878;55.624;37.304;2023-04-03T01:53:11;98697.25;;;3.85;64.53
74913;BME280;63878;55.624;37.304;2023-04-03T02:03:15;98689.59;;;3.82;64.62
74913;BME280;63878;55.624;37.304;2023-04-03T02:13:16;98694.63;;;3.85;63.80
74913;BME280;63878;55.624;37.304;2023-04-03T02:23:17;98691.78;;;3.88;63.28
74913;BME280;63878;55.624;37.304;2023-04-03T02:33:17;98691.78;;;3.88;63.47
74913;BME280;63878;55.624;37.304;2023-04-03T02:43:18;98695.78;;;3.93;63.88
74913;BME280;63878;55.624;37.304;2023-04-03T02:53:19;98686.16;;;3.81;62.46
74913;BME280;63878;55.624;37.304;2023-04-03T03:03:19;98693.28;;;3.92;61.79
74913;BME280;63878;55.624;37.304;2023-04-03T03:13:20;98693.69;;;3.86;62.55
74913;BME280;63878;55.624;37.304;2023-04-03T03:23:22;98703.06;;;3.88;62.57
74913;BME280;63878;55.624;37.304;2023-04-03T03:33:23;98715.09;;;3.78;62.99
74913;BME280;63878;55.624;37.304;2023-04-03T03:43:23;98703.41;;;3.96;62.71
74913;BME280;63878;55.624;37.304;2023-04-03T03:53:24;98706.63;;;4.13;61.43
74913;BME280;63878;55.624;37.304;2023-04-03T04:03:24;98710.72;;;3.91;62.60
74913;BME280;63878;55.624;37.304;2023-04-03T04:13:25;98723.84;;;4.15;61.81
74913;BME280;63878;55.624;37.304;2023-04-03T04:23:25;98713.94;;;4.08;62.92
74913;BME280;63878;55.624;37.304;2023-04-03T04:33:26;98708.28;;;3.88;62.27
74913;BME280;63878;55.624;37.304;2023-04-03T04:43:26;98719.81;;;4.11;60.26
74913;BME280;63878;55.624;37.304;2023-04-03T04:53:27;98727.28;;;4.41;60.08
74913;BME280;63878;55.624;37.304;2023-04-03T05:03:28;98734.31;;;4.28;60.11
74913;BME280;63878;55.624;37.304;2023-04-03T05:13:28;98738.69;;;4.15;60.14
74913;BME280;63878;55.624;37.304;2023-04-03T05:23:29;98740.88;;;4.34;60.39
74913;BME280;63878;55.624;37.304;2023-04-03T05:33:29;98747.38;;;4.15;60.88
74913;BME280;63878;55.624;37.304;2023-04-03T05:43:30;98743.91;;;4.27;60.20
74913;BME280;63878;55.624;37.304;2023-04-03T05:53:32;98757.56;;;4.69;59.68
74913;BME280;63878;55.624;37.304;2023-04-03T06:03:34;98750.38;;;4.60;60.18
74913;BME280;63878;55.624;37.304;2023-04-03T06:13:34;98767.72;;;4.48;61.49
74913;BME280;63878;55.624;37.304;2023-04-03T06:23:35;98780.59;;;4.64;60.30
74913;BME280;63878;55.624;37.304;2023-04-03T06:33:35;98777.59;;;4.32;61.06
74913;BME280;63878;55.624;37.304;2023-04-03T06:43:36;98779.47;;;4.30;60.85
74913;BME280;63878;55.624;37.304;2023-04-03T06:53:36;98780.25;;;4.56;60.14
74913;BME280;63878;55.624;37.304;2023-04-03T07:03:37;98785.38;;;4.83;59.95
74913;BME280;63878;55.624;37.304;2023-04-03T07:13:38;98779.75;;;5.13;58.02
74913;BME280;63878;55.624;37.304;2023-04-03T07:23:39;98783.91;;;5.87;56.93
74913;BME280;63878;55.624;37.304;2023-04-03T07:33:40;98786.50;;;6.11;55.90
74913;BME280;63878;55.624;37.304;2023-04-03T07:43:41;98788.91;;;6.26;55.91
74913;BME280;63878;55.624;37.304;2023-04-03T07:53:41;98785.31;;;6.27;55.08
74913;BME280;63878;55.624;37.304;2023-04-03T08:03:42;98790.69;;;6.48;52.90
74913;BME280;63878;55.624;37.304;2023-04-03T08:13:44;98779.50;;;6.68;51.60
74913;BME280;63878;55.624;37.304;2023-04-03T08:23:49;98785.13;;;6.86;50.30
74913;BME280;63878;55.624;37.304;2023-04-03T08:33:50;98799.19;;;7.07;49.99
74913;BME280;63878;55.624;37.304;2023-04-03T08:54:11;98814.09;;;7.18;50.00
74913;BME280;63878;55.624;37.304;2023-04-03T09:04:19;98825.88;;;7.23;49.92
74913;BME280;63878;55.624;37.304;2023-04-03T09:35:30;98822.56;;;8.18;48.11
74913;BME280;63878;55.624;37.304;2023-04-03T09:45:33;98822.28;;;8.32;48.20
74913;BME280;63878;55.624;37.304;2023-04-03T09:55:42;98820.66;;;8.41;48.94
74913;BME280;63878;55.624;37.304;2023-04-03T10:05:43;98828.72;;;8.07;48.12
74913;BME280;63878;55.624;37.304;2023-04-03T10:15:56;98839.13;;;8.29;46.65
74913;BME280;63878;55.624;37.304;2023-04-03T10:26:41;98838.94;;;8.42;47.37
74913;BME280;63878;55.624;37.304;2023-04-03T10:37:26;98839.63;;;8.23;46.27
74913;BME280;63878;55.624;37.304;2023-04-03T10:47:58;98837.44;;;8.07;44.55
74913;BME280;63878;55.624;37.304;2023-04-03T10:58:04;98834.91;;;8.38;42.75
74913;BME280;63878;55.624;37.304;2023-04-03T11:28:42;98837.72;;;8.46;45.45
74913;BME280;63878;55.624;37.304;2023-04-03T11:38:45;98830.69;;;9.17;45.59
74913;BME280;63878;55.624;37.304;2023-04-03T11:48:49;98814.78;;;8.88;45.48
74913;BME280;63878;55.624;37.304;2023-04-03T12:19:42;98829.38;;;8.41;47.66
74913;BME280;63878;55.624;37.304;2023-04-03T12:29:51;98826.06;;;8.70;47.47
74913;BME280;63878;55.624;37.304;2023-04-03T12:50:20;98831.81;;;8.54;45.70
74913;BME280;63878;55.624;37.304;2023-04-03T13:00:34;98834.84;;;8.80;46.26
74913;BME280;63878;55.624;37.304;2023-04-03T13:10:48;98841.31;;;8.45;46.11
74913;BME280;63878;55.624;37.304;2023-04-03T13:20:50;98848.00;;;8.17;46.51
74913;BME280;63878;55.624;37.304;2023-04-03T13:31:18;98841.16;;;8.05;46.97
74913;BME280;63878;55.624;37.304;2023-04-03T13:51:38;98859.44;;;7.63;49.65
74913;BME280;63878;55.624;37.304;2023-04-03T14:01:45;98834.75;;;7.66;49.02
74913;BME280;63878;55.624;37.304;2023-04-03T14:11:48;98832.69;;;7.69;49.97
74913;BME280;63878;55.624;37.304;2023-04-03T14:21:50;98851.75;;;7.82;50.26
74913;BME280;63878;55.624;37.304;2023-04-03T14:31:51;98849.91;;;7.62;50.79
74913;BME280;63878;55.624;37.304;2023-04-03T14:41:52;98866.22;;;7.77;49.95
74913;BME280;63878;55.624;37.304;2023-04-03T14:51:52;98835.97;;;7.50;49.36
74913;BME280;63878;55.624;37.304;2023-04-03T15:01:53;98857.38;;;7.78;49.39
74913;BME280;63878;55.624;37.304;2023-04-03T15:11:54;98846.56;;;7.60;49.18
74913;BME280;63878;55.624;37.304;2023-04-03T15:21:55;98854.72;;;8.21;50.44
74913;BME280;63878;55.624;37.304;2023-04-03T15:31:56;98857.44;;;8.31;48.90
74913;BME280;63878;55.624;37.304;2023-04-03T15:41:57;98851.72;;;8.15;48.92
74913;BME280;63878;55.624;37.304;2023-04-03T15:51:57;98847.31;;;8.15;48.12
74913;BME280;63878;55.624;37.304;2023-04-03T16:01:59;98867.63;;;7.92;49.10
74913;BME280;63878;55.624;37.304;2023-04-03T16:12:01;98868.09;;;7.86;49.78
74913;BME280;63878;55.624;37.304;2023-04-03T16:22:01;98867.78;;;7.79;49.04
74913;BME280;63878;55.624;37.304;2023-04-03T16:32:02;98876.84;;;7.75;49.81
74913;BME280;63878;55.624;37.304;2023-04-03T16:42:04;98885.34;;;7.68;50.48
74913;BME280;63878;55.624;37.304;2023-04-03T16:52:05;98900.66;;;7.63;49.59
74913;BME280;63878;55.624;37.304;2023-04-03T17:02:06;98904.59;;;7.57;49.85
74913;BME280;63878;55.624;37.304;2023-04-03T17:12:06;98911.53;;;7.47;50.43
74913;BME280;63878;55.624;37.304;2023-04-03T17:22:08;98915.47;;;7.41;50.45
74913;BME280;63878;55.624;37.304;2023-04-03T17:32:09;98919.31;;;7.37;49.86
74913;BME280;63878;55.624;37.304;2023-04-03T17:42:10;98918.59;;;7.35;50.57
74913;BME280;63878;55.624;37.304;2023-04-03T17:52:10;98905.22;;;7.27;51.10
74913;BME280;63878;55.624;37.304;2023-04-03T18:02:11;98913.94;;;7.27;52.57
74913;BME280;63878;55.624;37.304;2023-04-03T18:12:12;98916.22;;;7.32;51.83
74913;BME280;63878;55.624;37.304;2023-04-03T18:22:15;98910.72;;;7.13;53.19
74913;BME280;63878;55.624;37.304;2023-04-03T18:32:31;98897.69;;;6.89;53.33
74913;BME280;63878;55.624;37.304;2023-04-03T18:42:31;98906.78;;;7.07;53.28
74913;BME280;63878;55.624;37.304;2023-04-03T18:52:32;98909.31;;;6.62;54.10
74913;BME280;63878;55.624;37.304;2023-04-03T19:02:33;98914.63;;;6.38;56.19
74913;BME280;63878;55.624;37.304;2023-04-03T19:12:34;98910.44;;;6.71;54.25
74913;BME280;63878;55.624;37.304;2023-04-03T19:22:34;98903.47;;;7.05;55.88
74913;BME280;63878;55.624;37.304;2023-04-03T19:32:35;98907.38;;;6.88;53.71
74913;BME280;63878;55.624;37.304;2023-04-03T19:42:36;98917.28;;;6.85;54.54
74913;BME280;63878;55.624;37.304;2023-04-03T19:52:37;98921.38;;;6.76;56.86
74913;BME280;63878;55.624;37.304;2023-04-03T20:02:37;98916.06;;;6.42;59.36
74913;BME280;63878;55.624;37.304;2023-04-03T20:12:38;98894.25;;;6.31;60.16
74913;BME280;63878;55.624;37.304;2023-04-03T20:22:39;98909.53;;;6.48;61.31
74913;BME280;63878;55.624;37.304;2023-04-03T20:32:39;98894.16;;;6.55;60.54
74913;BME280;63878;55.624;37.304;2023-04-03T20:42:40;98906.41;;;6.43;60.54
74913;BME280;63878;55.624;37.304;2023-04-03T20:52:41;98899.47;;;6.31;59.95
74913;BME280;63878;55.624;37.304;2023-04-03T21:02:41;98893.25;;;6.21;61.48
74913;BME280;63878;55.624;37.304;2023-04-03T21:23:20;98881.03;;;6.08;63.11
74913;BME280;63878;55.624;37.304;2023-04-03T21:33:21;98881.41;;;6.04;64.03
74913;BME280;63878;55.624;37.304;2023-04-03T21:43:21;98876.53;;;5.86;65.67
74913;BME280;63878;55.624;37.304;2023-04-03T21:53:22;98879.22;;;5.74;66.92
74913;BME280;63878;55.624;37.304;2023-04-03T22:03:32;98872.16;;;5.87;66.95
74913;BME280;63878;55.624;37.304;2023-04-03T22:13:33;98859.94;;;5.75;67.41
74913;BME280;63878;55.624;37.304;2023-04-03T22:23:34;98859.72;;;5.54;68.07
74913;BME280;63878;55.624;37.304;2023-04-03T22:33:35;98852.44;;;5.21;69.22
74913;BME280;63878;55.624;37.304;2023-04-03T22:43:38;98854.56;;;5.16;69.59
74913;BME280;63878;55.624;37.304;2023-04-03T22:53:39;98854.00;;;4.74;70.63
74913;BME280;63878;55.624;37.304;2023-04-03T23:03:41;98838.59;;;4.69;70.76
74913;BME280;63878;55.624;37.304;2023-04-03T23:13:41;98830.75;;;4.69;70.68
74913;BME280;63878;55.624;37.304;2023-04-03T23:23:42;98836.94;;;4.55;71.65
74913;BME280;63878;55.624;37.304;2023-04-03T23:33:42;98821.34;;;4.92;69.92
74913;BME280;63878;55.624;37.304;2023-04-03T23:43:43;98839.41;;;4.95;69.96
74913;BME280;63878;55.624;37.304;2023-04-03T23:53:43;98836.72;;;4.97;69.94
